Time;durP1;ratioP1;P1;durP2;ratioP2;P2;SDS_P1;SDS_P2;PMS_P1;PMS_P2;Temp;Humidity;BMP_temperature;BMP_pressure;BME280_temperature;BME280_humidity;BME280_pressure;Samples;Min_cycle;Max_cycle;Signal;HPM_P1;HPM_P2
2021/10/21 00:02:18;;;;;;;3.13;2.10;;;;;;;;;;5053719;28;20467;-65
2021/10/21 00:04:44;;;;;;;3.90;1.90;;;;;;;;;;5053869;28;20484;-64
2021/10/21 00:07:10;;;;;;;3.43;2.30;;;;;;;;;;5053339;28;20413;-65
2021/10/21 00:09:37;;;;;;;3.30;2.63;;;;;;;;;;5054078;28;20402;-65
2021/10/21 00:12:04;;;;;;;3.57;2.73;;;;;;;;;;5053581;28;20910;-65
2021/10/21 00:14:31;;;;;;;3.03;2.03;;;;;;;;;;5053548;28;20408;-65
2021/10/21 00:16:57;;;;;;;5.07;3.03;;;;;;;;;;5053234;28;20988;-65
2021/10/21 00:19:23;;;;;;;3.53;2.07;;;;;;;;;;5053900;28;20397;-65
2021/10/21 00:21:49;;;;;;;3.90;2.47;;;;;;;;;;5053033;28;20506;-65
2021/10/21 00:24:17;;;;;;;2.70;2.30;;;;;;;;;;5052992;28;20397;-65
2021/10/21 00:26:43;;;;;;;3.53;2.30;;;;;;;;;;5053221;28;20418;-65
2021/10/21 00:29:09;;;;;;;3.33;2.30;;;;;;;;;;5035100;28;20421;-66
2021/10/21 00:31:35;;;;;;;3.43;2.33;;;;;;;;;;5053218;28;20786;-65
2021/10/21 00:34:01;;;;;;;6.13;2.10;;;;;;;;;;5052738;28;20887;-65
2021/10/21 00:36:29;;;;;;;3.07;2.30;;;;;;;;;;5055663;28;21009;-64
2021/10/21 00:38:55;;;;;;;4.43;2.50;;;;;;;;;;5040605;28;20922;-65
2021/10/21 00:41:21;;;;;;;3.80;2.20;;;;;;;;;;5036335;28;20562;-65
2021/10/21 00:43:47;;;;;;;8.83;2.47;;;;;;;;;;5036220;28;20410;-64
2021/10/21 00:46:14;;;;;;;3.90;3.10;;;;;;;;;;5036197;28;20446;-65
2021/10/21 00:48:41;;;;;;;3.40;2.33;;;;;;;;;;5036494;28;20407;-65
2021/10/21 00:51:11;;;;;;;3.43;2.30;;;;;;;;;;5035957;28;20441;-65
2021/10/21 00:53:37;;;;;;;4.97;2.10;;;;;;;;;;5036231;28;20406;-65
2021/10/21 00:56:05;;;;;;;13.03;2.90;;;;;;;;;;5035912;28;20407;-65
2021/10/21 00:58:32;;;;;;;3.60;2.60;;;;;;;;;;5036485;28;20403;-65
2021/10/21 01:00:59;;;;;;;4.40;2.33;;;;;;;;;;5036106;28;20450;-64
2021/10/21 01:03:25;;;;;;;4.40;2.87;;;;;;;;;;5036298;28;20454;-64
2021/10/21 01:05:51;;;;;;;4.17;2.43;;;;;;;;;;5036402;28;20490;-64
2021/10/21 01:08:17;;;;;;;6.73;2.97;;;;;;;;;;5036003;28;20409;-64
2021/10/21 01:10:44;;;;;;;2.77;2.17;;;;;;;;;;5039342;28;20411;-66
2021/10/21 01:13:10;;;;;;;3.60;2.80;;;;;;;;;;5040482;28;20409;-65
2021/10/21 01:15:36;;;;;;;3.67;2.70;;;;;;;;;;5049037;28;20527;-65
2021/10/21 01:18:02;;;;;;;3.63;2.53;;;;;;;;;;5059692;28;20421;-65
2021/10/21 01:20:28;;;;;;;3.00;2.50;;;;;;;;;;5059556;28;20452;-65
2021/10/21 01:22:55;;;;;;;4.23;2.60;;;;;;;;;;5060418;28;20394;-64
2021/10/21 01:25:21;;;;;;;3.10;2.60;;;;;;;;;;5060196;28;20459;-65
2021/10/21 01:27:48;;;;;;;3.33;2.47;;;;;;;;;;5060185;28;20453;-65
2021/10/21 01:30:18;;;;;;;3.90;2.77;;;;;;;;;;5059513;28;20451;-64
2021/10/21 01:32:44;;;;;;;4.00;3.00;;;;;;;;;;5060041;28;20460;-64
2021/10/21 01:35:11;;;;;;;4.60;2.70;;;;;;;;;;5059764;28;20406;-64
2021/10/21 01:37:37;;;;;;;3.30;2.70;;;;;;;;;;5052152;28;20431;-64
2021/10/21 01:40:03;;;;;;;3.23;2.70;;;;;;;;;;5055008;28;20409;-64
2021/10/21 01:42:29;;;;;;;3.70;2.73;;;;;;;;;;5059719;28;20430;-64
2021/10/21 01:44:55;;;;;;;4.60;2.60;;;;;;;;;;5059758;28;20425;-65
2021/10/21 01:47:21;;;;;;;4.37;2.57;;;;;;;;;;5042008;28;20532;-65
2021/10/21 01:49:48;;;;;;;3.27;2.70;;;;;;;;;;5035926;28;20892;-64
2021/10/21 01:52:15;;;;;;;3.70;2.80;;;;;;;;;;5035953;28;20395;-65
2021/10/21 01:54:41;;;;;;;3.33;2.60;;;;;;;;;;5035832;28;20493;-64
2021/10/21 01:57:07;;;;;;;3.77;2.63;;;;;;;;;;5035890;28;20505;-65
2021/10/21 01:59:33;;;;;;;3.93;2.50;;;;;;;;;;5035810;28;20409;-64
2021/10/21 02:01:59;;;;;;;5.33;3.10;;;;;;;;;;5035975;28;20852;-66
2021/10/21 02:04:25;;;;;;;4.20;3.00;;;;;;;;;;5035664;28;20891;-65
2021/10/21 02:06:51;;;;;;;3.70;2.97;;;;;;;;;;5035651;28;20418;-65
2021/10/21 02:09:17;;;;;;;3.47;2.70;;;;;;;;;;5018067;28;20395;-65
2021/10/21 02:11:44;;;;;;;4.73;2.70;;;;;;;;;;5035576;28;20402;-65
2021/10/21 02:14:10;;;;;;;3.03;2.60;;;;;;;;;;5035670;28;20755;-66
2021/10/21 02:16:36;;;;;;;3.77;2.47;;;;;;;;;;5052218;28;20525;-65
2021/10/21 02:19:02;;;;;;;4.33;2.90;;;;;;;;;;5055685;28;20402;-65
2021/10/21 02:21:28;;;;;;;4.30;2.53;;;;;;;;;;5055181;28;20550;-65
2021/10/21 02:23:54;;;;;;;3.03;2.70;;;;;;;;;;5055888;28;20425;-65
2021/10/21 02:26:20;;;;;;;3.50;3.20;;;;;;;;;;5055298;28;20785;-65
2021/10/21 02:28:46;;;;;;;2.57;2.30;;;;;;;;;;5055429;28;20879;-64
2021/10/21 02:31:12;;;;;;;5.03;3.50;;;;;;;;;;5055121;28;20425;-65
2021/10/21 02:33:38;;;;;;;3.87;2.57;;;;;;;;;;5055302;28;20394;-65
2021/10/21 02:36:04;;;;;;;3.63;2.97;;;;;;;;;;5055249;28;20835;-65
2021/10/21 02:38:30;;;;;;;3.40;2.53;;;;;;;;;;5055038;28;20404;-65
2021/10/21 02:40:56;;;;;;;3.50;2.80;;;;;;;;;;5054879;28;20481;-65
2021/10/21 02:43:22;;;;;;;5.30;3.07;;;;;;;;;;5054922;28;20401;-66
2021/10/21 02:45:48;;;;;;;4.70;2.63;;;;;;;;;;5054876;28;20418;-66
2021/10/21 02:48:14;;;;;;;3.50;2.93;;;;;;;;;;5054748;28;20397;-65
2021/10/21 02:50:40;;;;;;;3.53;2.80;;;;;;;;;;5054783;28;20440;-65
2021/10/21 02:53:07;;;;;;;4.73;2.80;;;;;;;;;;5054898;28;20504;-65
2021/10/21 02:55:33;;;;;;;4.23;3.10;;;;;;;;;;5054731;28;20493;-65
2021/10/21 02:57:59;;;;;;;4.03;3.20;;;;;;;;;;5054639;28;20422;-65
2021/10/21 03:00:25;;;;;;;6.93;2.57;;;;;;;;;;5054540;28;20451;-65
2021/10/21 03:02:51;;;;;;;3.90;2.73;;;;;;;;;;5054645;28;20400;-65
2021/10/21 03:05:17;;;;;;;5.27;3.20;;;;;;;;;;5054696;28;20397;-65
2021/10/21 03:07:43;;;;;;;4.40;3.00;;;;;;;;;;5054835;28;20440;-64
2021/10/21 03:10:09;;;;;;;3.50;2.90;;;;;;;;;;5054870;28;20402;-64
2021/10/21 03:12:35;;;;;;;6.27;3.23;;;;;;;;;;5054402;28;20808;-65
2021/10/21 03:15:01;;;;;;;5.77;3.63;;;;;;;;;;5054058;28;20409;-64
2021/10/21 03:17:27;;;;;;;3.00;2.47;;;;;;;;;;5049991;28;20449;-65
2021/10/21 03:19:53;;;;;;;4.60;2.83;;;;;;;;;;5045411;28;20493;-64
2021/10/21 03:22:19;;;;;;;3.63;2.90;;;;;;;;;;5054168;28;20456;-66
2021/10/21 03:24:45;;;;;;;3.87;2.80;;;;;;;;;;5054580;28;20444;-66
2021/10/21 03:27:11;;;;;;;6.80;3.23;;;;;;;;;;5054036;28;20425;-65
2021/10/21 03:29:38;;;;;;;3.70;2.77;;;;;;;;;;5054147;28;20956;-65
2021/10/21 03:32:04;;;;;;;2.70;2.17;;;;;;;;;;5053734;28;20899;-65
2021/10/21 03:34:32;;;;;;;3.50;2.50;;;;;;;;;;5054138;28;20445;-65
2021/10/21 03:36:58;;;;;;;4.30;3.10;;;;;;;;;;5053982;28;20513;-65
2021/10/21 03:39:24;;;;;;;4.53;2.73;;;;;;;;;;5053960;28;20406;-64
2021/10/21 03:41:50;;;;;;;4.07;2.50;;;;;;;;;;5053974;28;20460;-65
2021/10/21 03:44:16;;;;;;;2.97;2.37;;;;;;;;;;5054027;28;20420;-66
2021/10/21 03:46:42;;;;;;;3.40;3.10;;;;;;;;;;5054129;28;20504;-65
2021/10/21 03:49:08;;;;;;;5.37;4.00;;;;;;;;;;5042396;28;20410;-66
2021/10/21 03:51:34;;;;;;;5.37;3.10;;;;;;;;;;5033981;28;20406;-65
2021/10/21 03:54:00;;;;;;;7.73;2.80;;;;;;;;;;5033698;28;20454;-65
2021/10/21 03:56:26;;;;;;;4.90;3.10;;;;;;;;;;5044410;28;20445;-65
2021/10/21 03:58:52;;;;;;;5.57;2.63;;;;;;;;;;5053550;28;20413;-65
2021/10/21 04:01:18;;;;;;;4.73;3.10;;;;;;;;;;5053342;28;20453;-64
2021/10/21 04:03:44;;;;;;;5.87;3.47;;;;;;;;;;5053607;28;20480;-65
2021/10/21 04:06:11;;;;;;;3.63;2.83;;;;;;;;;;5053649;28;20417;-65
2021/10/21 04:08:37;;;;;;;4.40;2.73;;;;;;;;;;5053826;28;20405;-65
2021/10/21 04:11:03;;;;;;;5.23;3.40;;;;;;;;;;5053538;28;20540;-64
2021/10/21 04:13:29;;;;;;;5.00;2.60;;;;;;;;;;5053682;28;20405;-65
2021/10/21 04:15:55;;;;;;;6.47;3.60;;;;;;;;;;5053067;28;20421;-65
2021/10/21 04:18:21;;;;;;;9.20;3.27;;;;;;;;;;5053230;28;20488;-65
2021/10/21 04:20:49;;;;;;;4.00;2.90;;;;;;;;;;5053387;28;20449;-64
2021/10/21 04:23:15;;;;;;;3.73;3.10;;;;;;;;;;5053868;28;20477;-64
2021/10/21 04:25:41;;;;;;;6.30;3.43;;;;;;;;;;5053297;28;20405;-64
2021/10/21 04:28:07;;;;;;;4.40;2.90;;;;;;;;;;5053380;28;20888;-65
2021/10/21 04:30:33;;;;;;;3.60;2.73;;;;;;;;;;5052278;28;20405;-65
2021/10/21 04:32:59;;;;;;;6.57;2.97;;;;;;;;;;5053025;28;20484;-65
2021/10/21 04:35:25;;;;;;;3.60;3.17;;;;;;;;;;5053098;28;20471;-66
2021/10/21 04:37:51;;;;;;;6.03;3.10;;;;;;;;;;5053023;28;20531;-65
2021/10/21 04:40:17;;;;;;;4.00;3.10;;;;;;;;;;5052807;28;20440;-66
2021/10/21 04:42:43;;;;;;;4.83;3.47;;;;;;;;;;5053554;28;20405;-65
2021/10/21 04:45:10;;;;;;;5.53;3.43;;;;;;;;;;5051934;28;20464;-66
2021/10/21 04:47:36;;;;;;;8.70;4.13;;;;;;;;;;5052418;28;20429;-65
2021/10/21 04:50:02;;;;;;;4.47;3.20;;;;;;;;;;5033398;28;20774;-65
2021/10/21 04:52:28;;;;;;;6.17;3.90;;;;;;;;;;5032089;28;20415;-65
2021/10/21 04:54:54;;;;;;;7.90;4.60;;;;;;;;;;5032165;28;20433;-65
2021/10/21 04:57:20;;;;;;;4.43;3.43;;;;;;;;;;5031990;28;20509;-65
2021/10/21 04:59:46;;;;;;;5.87;4.00;;;;;;;;;;5031966;28;20405;-65
2021/10/21 05:02:12;;;;;;;5.43;4.20;;;;;;;;;;5031844;28;20452;-65
2021/10/21 05:04:38;;;;;;;4.50;3.53;;;;;;;;;;5031986;28;20544;-65
2021/10/21 05:07:04;;;;;;;4.03;3.23;;;;;;;;;;5032105;28;20501;-65
2021/10/21 05:09:30;;;;;;;4.50;3.30;;;;;;;;;;5031904;28;20398;-65
2021/10/21 05:11:56;;;;;;;4.43;3.60;;;;;;;;;;5031874;28;20783;-65
2021/10/21 05:14:23;;;;;;;5.93;4.70;;;;;;;;;;5031804;28;20926;-66
2021/10/21 05:16:49;;;;;;;6.60;4.30;;;;;;;;;;5032074;28;20422;-65
2021/10/21 05:19:15;;;;;;;5.30;4.37;;;;;;;;;;5050942;28;20455;-65
2021/10/21 05:21:41;;;;;;;5.67;4.27;;;;;;;;;;5052000;28;20449;-64
2021/10/21 05:24:07;;;;;;;4.50;3.90;;;;;;;;;;5051768;28;20398;-64
2021/10/21 05:26:33;;;;;;;6.20;4.37;;;;;;;;;;5051530;28;20425;-65
2021/10/21 05:28:59;;;;;;;5.73;4.23;;;;;;;;;;5051668;28;20397;-64
2021/10/21 05:31:25;;;;;;;9.47;5.17;;;;;;;;;;5051785;28;20459;-64
2021/10/21 05:33:51;;;;;;;6.63;4.50;;;;;;;;;;5051279;28;20433;-65
2021/10/21 05:36:20;;;;;;;5.90;4.80;;;;;;;;;;5051830;28;20426;-65
2021/10/21 05:38:46;;;;;;;6.13;4.47;;;;;;;;;;5051798;28;20405;-65
2021/10/21 05:41:12;;;;;;;8.17;4.93;;;;;;;;;;5051575;28;20464;-65
2021/10/21 05:43:38;;;;;;;6.00;4.40;;;;;;;;;;5051666;28;20777;-65
2021/10/21 05:46:04;;;;;;;6.13;4.63;;;;;;;;;;5009184;28;1222500;-66
2021/10/21 05:48:31;;;;;;;6.33;4.17;;;;;;;;;;5052029;28;20167;-65
2021/10/21 05:50:57;;;;;;;5.87;4.50;;;;;;;;;;5052717;28;20406;-65
2021/10/21 05:53:23;;;;;;;6.43;4.03;;;;;;;;;;5052328;28;20410;-65
2021/10/21 05:55:49;;;;;;;6.73;3.80;;;;;;;;;;5053580;28;20413;-65
2021/10/21 05:58:15;;;;;;;6.03;2.83;;;;;;;;;;5055874;28;20456;-65
2021/10/21 06:00:41;;;;;;;4.17;2.80;;;;;;;;;;5055889;28;20514;-65
2021/10/21 06:03:09;;;;;;;13.30;2.40;;;;;;;;;;5055888;28;20413;-65
2021/10/21 06:05:35;;;;;;;4.87;2.73;;;;;;;;;;5049353;28;20534;-66
2021/10/21 06:08:01;;;;;;;8.40;2.70;;;;;;;;;;5044627;28;20433;-65
2021/10/21 06:10:27;;;;;;;15.50;2.80;;;;;;;;;;5046512;28;20431;-66
2021/10/21 06:12:53;;;;;;;4.50;2.60;;;;;;;;;;5054036;28;20471;-66
2021/10/21 06:15:21;;;;;;;2.60;2.00;;;;;;;;;;5048764;28;20428;-67
2021/10/21 06:17:48;;;;;;;2.60;2.07;;;;;;;;;;5048035;28;20441;-65
2021/10/21 06:20:15;;;;;;;3.07;2.10;;;;;;;;;;5049654;28;20414;-66
2021/10/21 06:22:41;;;;;;;4.27;2.17;;;;;;;;;;5043195;28;20469;-66
2021/10/21 06:25:10;;;;;;;6.23;2.13;;;;;;;;;;5038664;28;20411;-65
2021/10/21 06:27:37;;;;;;;4.13;2.00;;;;;;;;;;5036073;28;20834;-64
2021/10/21 06:30:04;;;;;;;2.40;1.60;;;;;;;;;;5053807;28;20417;-64
2021/10/21 06:32:30;;;;;;;3.03;1.63;;;;;;;;;;5045887;28;20504;-64
2021/10/21 06:34:57;;;;;;;6.00;1.23;;;;;;;;;;5047280;28;20849;-66
2021/10/21 06:37:23;;;;;;;4.17;1.40;;;;;;;;;;5036564;28;20452;-66
2021/10/21 06:39:55;;;;;;;4.23;1.10;;;;;;;;;;5042760;28;20425;-66
2021/10/21 06:42:22;;;;;;;1.80;0.93;;;;;;;;;;5053925;28;20488;-65
2021/10/21 06:44:48;;;;;;;5.43;1.27;;;;;;;;;;5049530;28;20445;-65
2021/10/21 06:47:14;;;;;;;3.00;1.00;;;;;;;;;;5051318;28;20469;-65
2021/10/21 06:49:40;;;;;;;2.90;1.30;;;;;;;;;;5052526;28;20599;-66
2021/10/21 06:52:06;;;;;;;4.20;1.00;;;;;;;;;;5040806;28;20453;-67
2021/10/21 06:54:32;;;;;;;9.87;1.00;;;;;;;;;;5042503;28;20482;-64
2021/10/21 06:56:58;;;;;;;1.30;0.60;;;;;;;;;;5049917;28;20937;-65
2021/10/21 06:59:24;;;;;;;8.27;1.37;;;;;;;;;;5055652;28;20483;-65
2021/10/21 07:01:51;;;;;;;3.53;1.30;;;;;;;;;;5056448;28;20454;-65
2021/10/21 07:04:17;;;;;;;11.30;1.47;;;;;;;;;;5051762;28;20413;-64
2021/10/21 07:06:43;;;;;;;3.97;1.40;;;;;;;;;;5055717;28;20775;-65
2021/10/21 07:09:09;;;;;;;2.90;1.23;;;;;;;;;;5049409;28;20420;-65
2021/10/21 07:11:35;;;;;;;8.63;1.93;;;;;;;;;;5051320;28;20413;-64
2021/10/21 07:14:01;;;;;;;2.70;0.97;;;;;;;;;;5052556;28;20426;-64
2021/10/21 07:16:27;;;;;;;3.20;1.13;;;;;;;;;;5042367;28;20546;-65
2021/10/21 07:18:53;;;;;;;6.90;1.57;;;;;;;;;;5043280;28;20417;-65
2021/10/21 07:21:19;;;;;;;3.77;1.30;;;;;;;;;;5060139;28;20502;-65
2021/10/21 07:23:46;;;;;;;6.00;1.20;;;;;;;;;;5053513;28;20424;-64
2021/10/21 07:26:12;;;;;;;7.13;1.30;;;;;;;;;;5047327;28;20436;-65
2021/10/21 07:28:38;;;;;;;9.03;1.73;;;;;;;;;;5059311;28;20474;-65
2021/10/21 07:31:05;;;;;;;2.90;1.20;;;;;;;;;;5047859;28;20532;-65
2021/10/21 07:33:31;;;;;;;1.90;1.07;;;;;;;;;;5045147;28;20425;-65
2021/10/21 07:35:57;;;;;;;2.00;1.10;;;;;;;;;;5049531;28;20488;-65
2021/10/21 07:38:26;;;;;;;2.90;1.30;;;;;;;;;;5049873;28;20428;-64
2021/10/21 07:40:52;;;;;;;5.43;1.47;;;;;;;;;;5047039;28;20459;-64
2021/10/21 07:43:19;;;;;;;3.90;1.20;;;;;;;;;;5044217;28;20418;-65
2021/10/21 07:45:45;;;;;;;4.20;1.30;;;;;;;;;;5041991;28;20476;-65
2021/10/21 07:48:11;;;;;;;2.50;1.30;;;;;;;;;;5048078;28;20828;-63
2021/10/21 07:50:38;;;;;;;2.23;1.17;;;;;;;;;;5046561;28;20422;-66
2021/10/21 07:53:04;;;;;;;6.10;1.50;;;;;;;;;;5060710;28;20510;-65
2021/10/21 07:55:34;;;;;;;9.13;1.90;;;;;;;;;;5040805;28;20418;-65
2021/10/21 07:58:00;;;;;;;2.80;1.13;;;;;;;;;;5049792;28;20430;-65
2021/10/21 08:00:27;;;;;;;3.73;1.43;;;;;;;;;;5050561;28;20425;-67
2021/10/21 08:02:53;;;;;;;5.30;2.27;;;;;;;;;;5044330;28;20461;-65
2021/10/21 08:05:19;;;;;;;4.37;1.30;;;;;;;;;;5049417;28;20411;-65
2021/10/21 08:07:45;;;;;;;5.93;1.50;;;;;;;;;;5049740;28;20429;-65
2021/10/21 08:10:12;;;;;;;4.37;1.77;;;;;;;;;;5050646;28;20407;-66
2021/10/21 08:12:39;;;;;;;6.40;2.27;;;;;;;;;;5044824;28;20411;-65
2021/10/21 08:15:06;;;;;;;4.83;1.27;;;;;;;;;;5049388;28;20431;-66
2021/10/21 08:17:32;;;;;;;5.30;1.60;;;;;;;;;;5045681;28;20465;-62
2021/10/21 08:19:58;;;;;;;6.80;1.70;;;;;;;;;;5046602;28;20422;-65
2021/10/21 08:22:24;;;;;;;4.60;1.83;;;;;;;;;;5036914;28;20973;-64
2021/10/21 08:24:51;;;;;;;4.07;1.10;;;;;;;;;;5050276;28;21058;-63
2021/10/21 08:27:16;;;;;;;7.37;1.70;;;20.40;99.90;;;;;;5043832;28;20464;-64
2021/10/21 08:29:42;;;;;;;3.00;1.20;;;14.10;99.90;;;;;;5049321;28;20481;-64
2021/10/21 08:32:11;;;;;;;9.37;1.80;;;13.90;99.90;;;;;;5032217;28;20180;-68
2021/10/21 08:34:37;;;;;;;4.70;1.57;;;13.90;99.90;;;;;;5050017;28;20248;-66
2021/10/21 08:37:03;;;;;;;10.23;1.70;;;13.80;99.90;;;;;;5051734;28;20445;-65
2021/10/21 08:39:30;;;;;;;16.67;2.30;;;;;;;;;;5053684;28;20187;-65
2021/10/21 08:41:56;;;;;;;4.87;1.23;;;;;;;;;;5046443;28;20445;-65
2021/10/21 08:44:22;;;;;;;5.80;1.50;;;;;;;;;;5048572;28;20470;-67
2021/10/21 08:46:53;;;;;;;8.30;1.77;;;;;;;;;;5052402;28;20454;-64
2021/10/21 08:49:20;;;;;;;7.27;1.77;;;;;;;;;;5049668;28;20479;-65
2021/10/21 08:51:46;;;;;;;6.40;1.40;;;;;;;;;;5050656;28;20417;-64
2021/10/21 08:54:12;;;;;;;5.33;1.57;;;;;;;;;;5046324;28;20414;-65
2021/10/21 08:56:39;;;;;;;6.60;1.90;;;;;;;;;;5048344;28;20430;-64
2021/10/21 08:59:06;;;;;;;10.47;1.97;;;;;;;;;;5042657;28;20936;-65
2021/10/21 09:01:51;;;;;;;3.70;1.10;;;;;;;;;;5049131;28;20442;-65
2021/10/21 09:09:23;;;;;;;4.33;1.30;;;;;;;;;;5048861;28;20411;-65
2021/10/21 09:12:01;;;;;;;4.77;1.47;;;;;;;;;;5043745;28;20934;-66
2021/10/21 09:14:32;;;;;;;4.57;1.60;;;;;;;;;;5043140;28;20410;-65
2021/10/21 09:16:59;;;;;;;3.67;1.30;;;;;;;;;;5048170;28;20429;-65
2021/10/21 09:19:27;;;;;;;6.23;1.83;;;;;;;;;;5054632;28;20420;-65
2021/10/21 09:21:53;;;;;;;6.67;1.60;;;;;;;;;;5050161;28;20480;-65
2021/10/21 09:24:23;;;;;;;7.13;1.60;;;;;;;;;;5036816;28;20480;-65
2021/10/21 09:27:09;;;;;;;3.90;1.77;;;;;;;;;;5034902;28;20432;-65
2021/10/21 09:29:37;;;;;;;6.07;1.80;;;;;;;;;;5053012;28;20412;-65
2021/10/21 09:32:23;;;;;;;13.63;2.03;;;;;;;;;;5050015;28;20499;-65
2021/10/21 09:34:53;;;;;;;5.53;1.50;;;;;;;;;;5046066;28;20432;-65
2021/10/21 09:37:29;;;;;;;8.27;1.40;;;;;;;;;;5052091;28;20435;-65
2021/10/21 09:39:57;;;;;;;6.87;1.50;;;;;;;;;;5057311;28;20432;-64
2021/10/21 09:42:30;;;;;;;6.73;1.63;;;;;;;;;;5053684;28;20441;-65
2021/10/21 09:45:15;;;;;;;21.90;2.13;;;;;;;;;;5049724;28;20437;-65
2021/10/21 09:47:44;;;;;;;6.33;1.40;;;;;;;;;;5023653;28;20823;-65
2021/10/21 09:50:22;;;;;;;11.10;1.87;;;;;;;;;;5056688;28;20409;-65
2021/10/21 09:53:00;;;;;;;8.20;1.23;;;;;;;;;;5057358;28;20527;-65
2021/10/21 09:55:27;;;;;;;4.77;1.90;;;;;;;;;;5053361;28;20413;-65
2021/10/21 09:57:58;;;;;;;15.07;1.43;;;;;;;;;;5045312;28;20450;-65
2021/10/21 10:00:24;;;;;;;8.57;1.60;;;;;;;;;;5049183;28;20464;-65
2021/10/21 10:02:50;;;;;;;3.53;1.47;;;;;;;;;;5038931;28;20419;-65
2021/10/21 10:05:16;;;;;;;7.37;1.90;;;;;;;;;;5052162;28;20459;-65
2021/10/21 10:07:43;;;;;;;4.43;1.43;;;;;;;;;;5048470;28;20966;-65
2021/10/21 10:10:09;;;;;;;8.80;1.60;;;;;;;;;;5056271;28;20406;-65
2021/10/21 10:12:35;;;;;;;5.10;1.70;;;;;;;;;;5053511;28;20437;-65
2021/10/21 10:15:02;;;;;;;5.53;1.30;;;;;;;;;;5036674;28;20488;-65
2021/10/21 10:17:30;;;;;;;13.00;3.93;;;;;;;;;;5052783;28;20441;-65
2021/10/21 10:19:56;;;;;;;10.30;1.83;;;;;;;;;;5052863;28;20418;-66
2021/10/21 10:22:37;;;;;;;6.23;1.60;;;;;;;;;;5056158;28;20786;-66
2021/10/21 10:25:19;;;;;;;7.40;1.80;;;;;;;;;;5056848;28;20404;-65
2021/10/21 10:28:11;;;;;;;4.43;1.93;;;;;;;;;;5048152;28;20429;-67
2021/10/21 10:30:49;;;;;;;5.83;1.50;;;13.90;99.90;;;;;;5052597;28;20516;-66
2021/10/21 10:33:43;;;;;;;4.20;1.27;;;;;;;;;;5065720;28;20458;-65
2021/10/21 10:36:25;;;;;;;5.67;1.90;;;;;;;;;;5053216;28;20410;-66
2021/10/21 10:38:51;;;;;;;5.00;1.57;;;;;;;;;;5051440;28;20470;-65
2021/10/21 10:41:36;;;;;;;5.33;1.33;;;;;;;;;;5048277;28;20819;-65
2021/10/21 10:44:02;;;;;;;12.70;2.67;;;;;;;;;;5042746;28;20398;-67
2021/10/21 10:46:58;;;;;;;10.50;1.80;;;;;;;;;;5045236;28;20452;-67
2021/10/21 10:49:39;;;;;;;3.10;1.23;;;;;;;;;;5046450;28;20436;-66
2021/10/21 10:52:12;;;;;;;8.40;1.57;;;;;;;;;;5052091;28;20455;-65
2021/10/21 10:54:45;;;;;;;5.80;1.97;;;;;;;;;;5058127;28;20405;-64
2021/10/21 10:57:12;;;;;;;5.60;1.40;;;;;;;;;;5050795;28;20484;-66
2021/10/21 10:59:39;;;;;;;11.53;1.30;;;;;;;;;;5041478;28;20440;-67
2021/10/21 11:02:26;;;;;;;6.37;1.43;;;;;;;;;;5039512;28;20773;-66
2021/10/21 11:04:53;;;;;;;3.20;1.00;;;;;;;;;;5059011;28;20408;-69
2021/10/21 11:07:26;;;;;;;4.30;1.20;;;;;;;;;;5045994;28;20433;-66
2021/10/21 11:09:53;;;;;;;8.67;1.47;;;;;;;;;;5057424;28;20414;-66
2021/10/21 11:12:28;;;;;;;4.53;1.60;;;;;;;;;;5049794;28;20482;-67
2021/10/21 11:14:55;;;;;;;4.67;1.90;;;;;;;;;;5103815;22;20489;-81
2021/10/21 11:17:40;;;;;;;7.23;2.13;;;;;;;;;;5106252;28;20432;-81
2021/10/21 11:20:06;;;;;;;3.03;1.30;;;;;;;;;;5102020;28;20452;-81
2021/10/21 11:22:37;;;;;;;6.40;1.07;;;;;;;;;;5098414;28;20467;-80
2021/10/21 11:25:05;;;;;;;5.77;1.70;;;;;;;;;;5077010;28;20466;-81
2021/10/21 11:27:31;;;;;;;6.30;1.53;;;;;;;;;;5097702;28;20412;-81
2021/10/21 11:30:01;;;;;;;9.57;1.53;;;;;;;;;;5098208;28;20422;-78
2021/10/21 11:32:31;;;;;;;4.47;1.40;;;;;;;;;;5100255;28;20449;-81
2021/10/21 11:34:57;;;;;;;4.23;1.20;;;;;;;;;;5093200;28;20420;-81
2021/10/21 11:37:35;;;;;;;5.73;1.43;;;;;;;;;;5095526;28;20476;-80
2021/10/21 11:40:03;;;;;;;3.20;1.00;;;;;;;;;;5091642;28;20412;-80
2021/10/21 11:42:29;;;;;;;3.70;1.37;;;;;;;;;;5085182;28;20474;-82
2021/10/21 11:45:05;;;;;;;5.33;1.63;;;;;;;;;;5094284;28;20832;-80
2021/10/21 11:47:33;;;;;;;4.77;1.40;;;;;;;;;;5102450;28;20412;-79
2021/10/21 11:49:59;;;;;;;5.60;1.30;;;;;;;;;;5100722;28;20756;-77
2021/10/21 11:52:36;;;;;;;3.60;1.30;;;;;;;;;;5098463;28;20424;-80
2021/10/21 11:55:02;;;;;;;8.17;1.27;;;;;;;;;;5093518;28;20404;-79
2021/10/21 11:57:32;;;;;;;6.50;1.70;;;;;;;;;;5091839;28;20416;-80
2021/10/21 11:59:59;;;;;;;3.60;1.20;;;;;;;;;;5093407;28;20433;-80
2021/10/21 12:02:29;;;;;;;3.83;1.20;;;;;;;;;;5083117;28;20521;-81
2021/10/21 12:04:55;;;;;;;3.27;1.30;;;;;;;;;;5088365;28;20431;-81
2021/10/21 12:07:23;;;;;;;3.43;1.30;;;;;;;;;;5094498;28;20443;-81
2021/10/21 12:09:49;;;;;;;2.73;0.90;;;;;;;;;;5099416;28;20416;-80
2021/10/21 12:12:15;;;;;;;4.00;0.97;;;;;;;;;;5085505;28;20432;-81
2021/10/21 12:14:42;;;;;;;3.50;1.53;;;;;;;;;;5103857;28;20502;-80
2021/10/21 12:17:09;;;;;;;3.30;1.33;;;;;;;;;;5100418;28;20504;-80
2021/10/21 12:19:35;;;;;;;3.70;1.20;;;;;;;;;;5089067;28;20417;-79
2021/10/21 12:22:15;;;;;;;4.67;1.83;;;;;;;;;;5100799;28;20455;-80
2021/10/21 12:24:42;;;;;;;4.83;1.10;;;;;;;;;;5097459;28;20432;-80
2021/10/21 12:27:09;;;;;;;3.00;0.90;;;;;;;;;;5081368;28;20419;-79
2021/10/21 12:29:42;;;;;;;3.07;0.90;;;;;;;;;;5090652;28;20434;-80
2021/10/21 12:32:19;;;;;;;3.33;1.30;;;;;;;;;;5094370;28;20434;-80
2021/10/21 12:34:47;;;;;;;4.90;1.37;;;;;;;;;;5089276;28;20408;-81
2021/10/21 12:37:17;;;;;;;4.13;1.13;;;;;;;;;;5097229;28;20440;-81
2021/10/21 12:39:44;;;;;;;3.53;1.27;;;;;;;;;;5083839;28;20429;-80
2021/10/21 12:42:11;;;;;;;3.73;0.80;;;;;;;;;;5065722;28;20457;-81
2021/10/21 12:44:42;;;;;;;3.10;1.10;;;;;;;;;;5101433;28;20420;-81
2021/10/21 12:47:21;;;;;;;4.27;1.20;;;;;;;;;;5095151;28;20420;-82
2021/10/21 12:50:05;;;;;;;2.37;0.93;;;;;;;;;;5088203;28;20408;-80
2021/10/21 12:52:32;;;;;;;3.00;1.30;;;;;;;;;;5096198;28;20414;-80
2021/10/21 12:55:08;;;;;;;2.83;1.10;;;;;;;;;;5095363;28;20412;-82
2021/10/21 12:57:41;;;;;;;3.17;1.13;;;;;;;;;;5095531;28;20418;-80
2021/10/21 13:00:07;;;;;;;9.23;1.13;;;;;;;;;;5099998;28;20436;-81
2021/10/21 13:02:33;;;;;;;3.47;1.10;;;;;;;;;;5087173;28;20461;-80
2021/10/21 13:05:04;;;;;;;2.17;0.90;;;;;;;;;;5084890;28;20476;-79
2021/10/21 13:07:30;;;;;;;5.17;1.20;;;;;;;;;;5078214;28;20466;-80
2021/10/21 13:09:56;;;;;;;2.43;1.20;;;;;;;;;;5092895;28;20410;-79
2021/10/21 13:12:23;;;;;;;2.33;1.00;;;;;;;;;;5087612;28;20408;-81
2021/10/21 13:14:50;;;;;;;2.60;0.90;;;;;;;;;;5092253;28;20529;-79
2021/10/21 13:17:17;;;;;;;5.13;1.30;;;;;;;;;;5083460;28;20493;-81
2021/10/21 13:19:43;;;;;;;4.63;1.47;;;;;;;;;;5089435;28;20423;-81
2021/10/21 13:22:09;;;;;;;3.90;2.60;;;;;;;;;;5116370;22;20609;-64
2021/10/21 13:24:36;;;;;;;3.70;1.10;;;;;;;;;;5073765;28;20490;-64
2021/10/21 13:27:03;;;;;;;3.83;1.20;;;;;;;;;;5071308;28;20409;-64
2021/10/21 13:29:29;;;;;;;3.13;1.20;;;;;;;;;;5074017;28;20801;-64
2021/10/21 13:31:55;;;;;;;3.10;1.10;;;;;;;;;;5070619;28;20886;-64
2021/10/21 13:34:21;;;;;;;3.33;1.37;;;;;;;;;;5075074;28;20862;-64
2021/10/21 13:36:48;;;;;;;3.70;1.50;;;;;;;;;;5072030;28;20415;-64
2021/10/21 13:39:14;;;;;;;4.80;1.30;;;;;;;;;;5070546;28;20408;-64
2021/10/21 13:41:40;;;;;;;3.13;0.90;;;;;;;;;;5073087;28;20456;-64
2021/10/21 13:44:06;;;;;;;3.33;1.33;;;;;;;;;;5073715;28;20435;-64
2021/10/21 13:46:33;;;;;;;3.40;1.33;;;;;;;;;;5089859;28;20446;-64
2021/10/21 13:48:59;;;;;;;5.30;1.37;;;;;;;;;;5075810;28;20409;-64
2021/10/21 13:51:25;;;;;;;4.13;2.63;;;;;;;;;;5057103;28;20416;-64
2021/10/21 13:53:52;;;;;;;3.23;0.87;;;;;;;;;;5074594;28;20432;-64
2021/10/21 13:56:18;;;;;;;5.87;1.43;;;;;;;;;;5069601;28;20936;-64
2021/10/21 13:58:45;;;;;;;2.87;1.73;;;;;;;;;;5075320;28;20454;-64
2021/10/21 14:01:11;;;;;;;2.33;0.90;;;;;;;;;;5074884;28;20801;-64
2021/10/21 14:03:37;;;;;;;3.77;1.77;;;;;;;;;;5072655;28;20502;-64
2021/10/21 14:06:03;;;;;;;3.20;0.90;;;;;;;;;;5070039;28;20423;-63
2021/10/21 14:08:31;;;;;;;2.53;1.03;;;;;;;;;;5074784;28;20427;-64
2021/10/21 14:10:58;;;;;;;2.93;0.93;;;;;;;;;;5056963;28;20519;-64
2021/10/21 14:13:24;;;;;;;5.80;1.90;;;;;;;;;;5073880;28;20499;-64
2021/10/21 14:15:50;;;;;;;7.23;1.40;;;;;;;;;;5073592;28;20512;-64
2021/10/21 14:18:17;;;;;;;7.73;1.20;;;;;;;;;;5074101;28;20432;-64
2021/10/21 14:20:43;;;;;;;2.43;1.53;;;;;;;;;;5070551;28;20819;-64
2021/10/21 14:23:10;;;;;;;2.77;1.17;;;;;;;;;;5068909;28;20441;-63
2021/10/21 14:25:36;;;;;;;1.80;1.00;;;;;;;;;;5072320;28;20420;-64
2021/10/21 14:28:02;;;;;;;3.90;1.30;;;;;;;;;;5069127;28;20480;-64
2021/10/21 14:30:28;;;;;;;5.83;1.40;;;;;;;;;;5068562;28;20814;-64
2021/10/21 14:32:54;;;;;;;3.23;1.03;;;;;;;;;;5070674;28;20443;-64
2021/10/21 14:35:21;;;;;;;5.63;1.30;;;;;;;;;;5075736;28;20413;-64
2021/10/21 14:37:47;;;;;;;6.53;1.20;;;;;;;;;;5072205;28;20428;-63
2021/10/21 14:40:15;;;;;;;2.70;1.10;;;;;;;;;;5073758;28;20470;-63
2021/10/21 14:42:42;;;;;;;5.40;1.37;;;;;;;;;;5059931;28;20467;-63
2021/10/21 14:45:09;;;;;;;3.40;1.00;;;;;;;;;;5072566;28;20433;-64
2021/10/21 14:47:35;;;;;;;2.63;1.37;;;;;;;;;;5074061;28;20409;-64
2021/10/21 14:50:03;;;;;;;2.90;0.93;;;;;;;;;;5071680;28;20425;-63